sensor_id;sensor_type;location;lat;lon;timestamp;temperature;humidity
2893;DHT22;1456;51.840;12.184;2023-08-07T00:00:53;16.70;99.90
2893;DHT22;1456;51.840;12.184;2023-08-07T00:03:21;16.70;99.90
2893;DHT22;1456;51.840;12.184;2023-08-07T00:05:48;16.60;99.90
2893;DHT22;1456;51.840;12.184;2023-08-07T00:08:14;16.30;99.90
2893;DHT22;1456;51.840;12.184;2023-08-07T00:10:40;16.10;99.90
2893;DHT22;1456;51.840;12.184;2023-08-07T00:13:06;15.90;99.90
2893;DHT22;1456;51.840;12.184;2023-08-07T00:15:33;15.70;99.90
2893;DHT22;1456;51.840;12.184;2023-08-07T00:18:01;15.50;99.90
2893;DHT22;1456;51.840;12.184;2023-08-07T00:20:27;15.50;99.90
2893;DHT22;1456;51.840;12.184;2023-08-07T00:22:53;15.30;99.90
2893;DHT22;1456;51.840;12.184;2023-08-07T00:25:19;15.30;99.90
2893;DHT22;1456;51.840;12.184;2023-08-07T00:27:44;15.30;99.90
2893;DHT22;1456;51.840;12.184;2023-08-07T00:30:12;15.20;99.90
2893;DHT22;1456;51.840;12.184;2023-08-07T00:32:37;15.10;99.90
2893;DHT22;1456;51.840;12.184;2023-08-07T00:35:04;15.10;99.90
2893;DHT22;1456;51.840;12.184;2023-08-07T00:37:30;15.10;99.90
2893;DHT22;1456;51.840;12.184;2023-08-07T00:39:56;15.00;99.90
2893;DHT22;1456;51.840;12.184;2023-08-07T00:42:21;15.00;99.90
2893;DHT22;1456;51.840;12.184;2023-08-07T00:44:47;15.00;99.90
2893;DHT22;1456;51.840;12.184;2023-08-07T00:47:14;15.00;99.90
2893;DHT22;1456;51.840;12.184;2023-08-07T00:49:40;15.10;99.90
2893;DHT22;1456;51.840;12.184;2023-08-07T00:52:06;15.10;99.90
2893;DHT22;1456;51.840;12.184;2023-08-07T00:54:33;15.20;99.90
2893;DHT22;1456;51.840;12.184;2023-08-07T00:57:05;15.20;99.90
2893;DHT22;1456;51.840;12.184;2023-08-07T00:59:33;15.20;99.90
2893;DHT22;1456;51.840;12.184;2023-08-07T01:01:59;15.20;99.90
2893;DHT22;1456;51.840;12.184;2023-08-07T01:04:26;15.20;99.90
2893;DHT22;1456;51.840;12.184;2023-08-07T01:06:52;15.30;99.90
2893;DHT22;1456;51.840;12.184;2023-08-07T01:09:17;15.30;99.90
2893;DHT22;1456;51.840;12.184;2023-08-07T01:11:57;15.40;99.90
2893;DHT22;1456;51.840;12.184;2023-08-07T01:14:37;15.40;99.90
2893;DHT22;1456;51.840;12.184;2023-08-07T01:17:10;15.50;99.90
2893;DHT22;1456;51.840;12.184;2023-08-07T01:19:38;15.50;99.90
2893;DHT22;1456;51.840;12.184;2023-08-07T01:22:12;15.40;99.90
2893;DHT22;1456;51.840;12.184;2023-08-07T01:24:40;15.40;99.90
2893;DHT22;1456;51.840;12.184;2023-08-07T01:35:32;15.20;99.90
2893;DHT22;1456;51.840;12.184;2023-08-07T01:38:00;15.10;99.90
2893;DHT22;1456;51.840;12.184;2023-08-07T01:40:27;15.00;99.90
2893;DHT22;1456;51.840;12.184;2023-08-07T01:42:53;14.80;99.90
2893;DHT22;1456;51.840;12.184;2023-08-07T01:45:24;14.70;99.90
2893;DHT22;1456;51.840;12.184;2023-08-07T01:47:52;14.60;99.90
2893;DHT22;1456;51.840;12.184;2023-08-07T01:50:21;14.60;99.90
2893;DHT22;1456;51.840;12.184;2023-08-07T01:52:47;14.60;99.90
2893;DHT22;1456;51.840;12.184;2023-08-07T01:55:16;14.60;99.90
2893;DHT22;1456;51.840;12.184;2023-08-07T01:57:42;14.60;99.90
2893;DHT22;1456;51.840;12.184;2023-08-07T02:00:08;14.60;99.90
2893;DHT22;1456;51.840;12.184;2023-08-07T02:02:37;14.60;99.90
2893;DHT22;1456;51.840;12.184;2023-08-07T02:05:03;14.70;99.90
2893;DHT22;1456;51.840;12.184;2023-08-07T02:07:30;14.60;99.90
2893;DHT22;1456;51.840;12.184;2023-08-07T02:09:56;14.70;99.90
2893;DHT22;1456;51.840;12.184;2023-08-07T02:12:22;14.70;99.90
2893;DHT22;1456;51.840;12.184;2023-08-07T02:14:47;14.80;99.90
2893;DHT22;1456;51.840;12.184;2023-08-07T02:17:13;14.80;99.90
2893;DHT22;1456;51.840;12.184;2023-08-07T02:19:39;14.80;99.90
2893;DHT22;1456;51.840;12.184;2023-08-07T02:22:10;14.80;99.90
2893;DHT22;1456;51.840;12.184;2023-08-07T02:24:36;14.80;99.90
2893;DHT22;1456;51.840;12.184;2023-08-07T02:27:04;14.90;99.90
2893;DHT22;1456;51.840;12.184;2023-08-07T02:29:29;15.00;99.90
2893;DHT22;1456;51.840;12.184;2023-08-07T02:31:56;15.00;99.90
2893;DHT22;1456;51.840;12.184;2023-08-07T02:34:22;15.00;99.90
2893;DHT22;1456;51.840;12.184;2023-08-07T02:36:48;15.10;99.90
2893;DHT22;1456;51.840;12.184;2023-08-07T02:39:14;15.10;99.90
2893;DHT22;1456;51.840;12.184;2023-08-07T02:41:40;15.10;99.90
2893;DHT22;1456;51.840;12.184;2023-08-07T02:44:05;15.10;99.90
2893;DHT22;1456;51.840;12.184;2023-08-07T02:46:31;15.10;99.90
2893;DHT22;1456;51.840;12.184;2023-08-07T02:48:57;15.10;99.90
2893;DHT22;1456;51.840;12.184;2023-08-07T02:51:22;15.10;99.90
2893;DHT22;1456;51.840;12.184;2023-08-07T02:53:48;15.10;99.90
2893;DHT22;1456;51.840;12.184;2023-08-07T02:56:14;15.10;99.90
2893;DHT22;1456;51.840;12.184;2023-08-07T02:58:39;15.10;99.90
2893;DHT22;1456;51.840;12.184;2023-08-07T03:01:05;15.10;99.90
2893;DHT22;1456;51.840;12.184;2023-08-07T03:03:32;15.00;99.90
2893;DHT22;1456;51.840;12.184;2023-08-07T03:05:57;15.00;99.90
2893;DHT22;1456;51.840;12.184;2023-08-07T03:08:23;15.00;99.90
2893;DHT22;1456;51.840;12.184;2023-08-07T03:10:54;15.00;99.90
2893;DHT22;1456;51.840;12.184;2023-08-07T03:13:22;14.90;99.90
2893;DHT22;1456;51.840;12.184;2023-08-07T03:15:47;14.90;99.90
2893;DHT22;1456;51.840;12.184;2023-08-07T03:18:16;14.90;99.90
2893;DHT22;1456;51.840;12.184;2023-08-07T03:20:42;14.90;99.90
2893;DHT22;1456;51.840;12.184;2023-08-07T03:23:10;14.90;99.90
2893;DHT22;1456;51.840;12.184;2023-08-07T03:25:36;14.90;99.90
2893;DHT22;1456;51.840;12.184;2023-08-07T03:28:02;14.90;99.90
2893;DHT22;1456;51.840;12.184;2023-08-07T03:30:34;14.90;99.90
2893;DHT22;1456;51.840;12.184;2023-08-07T03:33:00;14.90;99.90
2893;DHT22;1456;51.840;12.184;2023-08-07T03:35:26;14.90;99.90
2893;DHT22;1456;51.840;12.184;2023-08-07T03:37:52;15.00;99.90
2893;DHT22;1456;51.840;12.184;2023-08-07T03:40:19;14.90;99.90
2893;DHT22;1456;51.840;12.184;2023-08-07T03:42:45;15.00;99.90
2893;DHT22;1456;51.840;12.184;2023-08-07T03:45:10;14.90;99.90
2893;DHT22;1456;51.840;12.184;2023-08-07T03:47:36;14.90;99.90
2893;DHT22;1456;51.840;12.184;2023-08-07T03:50:02;14.90;99.90
2893;DHT22;1456;51.840;12.184;2023-08-07T03:52:27;14.90;99.90
2893;DHT22;1456;51.840;12.184;2023-08-07T03:54:54;14.90;99.90
2893;DHT22;1456;51.840;12.184;2023-08-07T03:57:20;14.90;99.90
2893;DHT22;1456;51.840;12.184;2023-08-07T03:59:46;14.80;99.90
2893;DHT22;1456;51.840;12.184;2023-08-07T04:02:11;14.80;99.90
2893;DHT22;1456;51.840;12.184;2023-08-07T04:04:37;14.80;99.90
2893;DHT22;1456;51.840;12.184;2023-08-07T04:07:03;14.90;99.90
2893;DHT22;1456;51.840;12.184;2023-08-07T04:09:28;14.90;99.90
2893;DHT22;1456;51.840;12.184;2023-08-07T04:11:55;14.90;99.90
2893;DHT22;1456;51.840;12.184;2023-08-07T04:14:21;14.90;99.90
2893;DHT22;1456;51.840;12.184;2023-08-07T04:16:46;14.90;99.90
2893;DHT22;1456;51.840;12.184;2023-08-07T04:19:12;14.90;99.90
2893;DHT22;1456;51.840;12.184;2023-08-07T04:21:38;14.90;99.90
2893;DHT22;1456;51.840;12.184;2023-08-07T04:24:03;14.90;99.90
2893;DHT22;1456;51.840;12.184;2023-08-07T04:26:37;14.90;99.90
2893;DHT22;1456;51.840;12.184;2023-08-07T04:29:04;14.90;99.90
2893;DHT22;1456;51.840;12.184;2023-08-07T04:31:30;14.90;99.90
2893;DHT22;1456;51.840;12.184;2023-08-07T04:33:59;14.90;99.90
2893;DHT22;1456;51.840;12.184;2023-08-07T04:36:25;14.90;99.90
2893;DHT22;1456;51.840;12.184;2023-08-07T04:38:53;14.90;99.90
2893;DHT22;1456;51.840;12.184;2023-08-07T04:41:20;15.00;99.90
2893;DHT22;1456;51.840;12.184;2023-08-07T04:43:46;15.00;99.90
2893;DHT22;1456;51.840;12.184;2023-08-07T04:46:14;15.10;99.90
2893;DHT22;1456;51.840;12.184;2023-08-07T04:48:40;15.20;99.90
2893;DHT22;1456;51.840;12.184;2023-08-07T04:51:06;15.30;99.90
2893;DHT22;1456;51.840;12.184;2023-08-07T04:53:31;15.40;99.90
2893;DHT22;1456;51.840;12.184;2023-08-07T04:55:59;15.40;99.90
2893;DHT22;1456;51.840;12.184;2023-08-07T04:58:25;15.50;99.90
2893;DHT22;1456;51.840;12.184;2023-08-07T05:00:57;15.60;99.90
2893;DHT22;1456;51.840;12.184;2023-08-07T05:03:25;15.70;99.90
2893;DHT22;1456;51.840;12.184;2023-08-07T05:05:58;15.80;99.90
2893;DHT22;1456;51.840;12.184;2023-08-07T05:08:25;15.90;99.90
2893;DHT22;1456;51.840;12.184;2023-08-07T05:10:51;15.90;99.90
2893;DHT22;1456;51.840;12.184;2023-08-07T05:13:17;16.00;99.90
2893;DHT22;1456;51.840;12.184;2023-08-07T05:15:42;16.00;99.90
2893;DHT22;1456;51.840;12.184;2023-08-07T05:18:08;16.10;99.90
2893;DHT22;1456;51.840;12.184;2023-08-07T05:20:34;16.20;99.90
2893;DHT22;1456;51.840;12.184;2023-08-07T05:23:00;16.30;99.90
2893;DHT22;1456;51.840;12.184;2023-08-07T05:25:28;16.30;99.90
2893;DHT22;1456;51.840;12.184;2023-08-07T05:27:53;16.20;99.90
2893;DHT22;1456;51.840;12.184;2023-08-07T05:30:21;16.30;99.90
2893;DHT22;1456;51.840;12.184;2023-08-07T05:32:50;16.40;99.90
2893;DHT22;1456;51.840;12.184;2023-08-07T05:35:16;16.40;99.90
2893;DHT22;1456;51.840;12.184;2023-08-07T05:37:42;16.40;99.90
2893;DHT22;1456;51.840;12.184;2023-08-07T05:40:08;16.40;99.90
2893;DHT22;1456;51.840;12.184;2023-08-07T05:42:39;16.40;99.90
2893;DHT22;1456;51.840;12.184;2023-08-07T05:45:09;16.40;99.90
2893;DHT22;1456;51.840;12.184;2023-08-07T05:47:36;16.40;99.90
2893;DHT22;1456;51.840;12.184;2023-08-07T05:50:03;16.40;99.90
2893;DHT22;1456;51.840;12.184;2023-08-07T05:52:28;16.30;99.90
2893;DHT22;1456;51.840;12.184;2023-08-07T05:54:55;16.40;99.90
2893;DHT22;1456;51.840;12.184;2023-08-07T05:57:21;16.30;99.90
2893;DHT22;1456;51.840;12.184;2023-08-07T05:59:48;16.30;99.90
2893;DHT22;1456;51.840;12.184;2023-08-07T06:02:19;16.30;99.90
2893;DHT22;1456;51.840;12.184;2023-08-07T06:04:46;16.30;99.90
2893;DHT22;1456;51.840;12.184;2023-08-07T06:07:12;16.40;99.90
2893;DHT22;1456;51.840;12.184;2023-08-07T06:09:38;16.40;99.90
2893;DHT22;1456;51.840;12.184;2023-08-07T06:12:03;16.50;99.90
2893;DHT22;1456;51.840;12.184;2023-08-07T06:14:29;16.70;99.90
2893;DHT22;1456;51.840;12.184;2023-08-07T06:17:01;16.90;99.90
2893;DHT22;1456;51.840;12.184;2023-08-07T06:19:27;17.00;99.90
2893;DHT22;1456;51.840;12.184;2023-08-07T06:21:55;17.00;99.90
2893;DHT22;1456;51.840;12.184;2023-08-07T06:24:22;17.20;99.90
2893;DHT22;1456;51.840;12.184;2023-08-07T06:26:49;17.10;99.90
2893;DHT22;1456;51.840;12.184;2023-08-07T06:29:15;17.20;99.90
2893;DHT22;1456;51.840;12.184;2023-08-07T06:31:43;17.20;99.90
2893;DHT22;1456;51.840;12.184;2023-08-07T06:34:09;17.20;99.90
2893;DHT22;1456;51.840;12.184;2023-08-07T06:36:34;17.30;99.90
2893;DHT22;1456;51.840;12.184;2023-08-07T06:39:01;17.40;99.90
2893;DHT22;1456;51.840;12.184;2023-08-07T06:41:27;17.50;99.90
2893;DHT22;1456;51.840;12.184;2023-08-07T06:43:53;17.70;99.90
2893;DHT22;1456;51.840;12.184;2023-08-07T06:46:20;17.70;99.90
2893;DHT22;1456;51.840;12.184;2023-08-07T06:48:49;17.60;99.90
2893;DHT22;1456;51.840;12.184;2023-08-07T06:51:16;17.80;99.90
2893;DHT22;1456;51.840;12.184;2023-08-07T06:53:43;17.80;99.90
2893;DHT22;1456;51.840;12.184;2023-08-07T06:56:08;18.20;99.90
2893;DHT22;1456;51.840;12.184;2023-08-07T06:58:35;18.00;99.90
2893;DHT22;1456;51.840;12.184;2023-08-07T07:01:01;17.90;99.90
2893;DHT22;1456;51.840;12.184;2023-08-07T07:03:27;18.00;99.90
2893;DHT22;1456;51.840;12.184;2023-08-07T07:05:55;18.10;99.90
2893;DHT22;1456;51.840;12.184;2023-08-07T07:08:21;18.00;99.90
2893;DHT22;1456;51.840;12.184;2023-08-07T07:10:49;18.10;99.90
2893;DHT22;1456;51.840;12.184;2023-08-07T07:13:15;18.20;99.90
2893;DHT22;1456;51.840;12.184;2023-08-07T07:15:41;18.30;99.90
2893;DHT22;1456;51.840;12.184;2023-08-07T07:18:07;18.50;99.90
2893;DHT22;1456;51.840;12.184;2023-08-07T07:20:33;18.50;99.90
2893;DHT22;1456;51.840;12.184;2023-08-07T07:22:58;18.40;99.90
2893;DHT22;1456;51.840;12.184;2023-08-07T07:25:24;18.20;99.90
2893;DHT22;1456;51.840;12.184;2023-08-07T07:27:50;18.10;99.90
2893;DHT22;1456;51.840;12.184;2023-08-07T07:30:17;18.00;99.90
2893;DHT22;1456;51.840;12.184;2023-08-07T07:32:43;18.00;99.90
2893;DHT22;1456;51.840;12.184;2023-08-07T07:35:09;18.00;99.90
2893;DHT22;1456;51.840;12.184;2023-08-07T07:37:35;18.00;99.90
2893;DHT22;1456;51.840;12.184;2023-08-07T07:40:00;18.00;99.90
2893;DHT22;1456;51.840;12.184;2023-08-07T07:42:26;17.90;99.90
2893;DHT22;1456;51.840;12.184;2023-08-07T07:44:52;17.90;99.90
2893;DHT22;1456;51.840;12.184;2023-08-07T07:47:20;18.20;99.90
2893;DHT22;1456;51.840;12.184;2023-08-07T07:49:47;18.40;99.90
2893;DHT22;1456;51.840;12.184;2023-08-07T07:52:14;18.50;99.90
2893;DHT22;1456;51.840;12.184;2023-08-07T07:54:39;18.80;99.90
2893;DHT22;1456;51.840;12.184;2023-08-07T07:57:05;18.90;99.90
2893;DHT22;1456;51.840;12.184;2023-08-07T07:59:31;18.90;99.90
2893;DHT22;1456;51.840;12.184;2023-08-07T08:01:57;19.10;99.90
2893;DHT22;1456;51.840;12.184;2023-08-07T08:04:22;19.20;99.90
2893;DHT22;1456;51.840;12.184;2023-08-07T08:06:49;19.50;99.90
2893;DHT22;1456;51.840;12.184;2023-08-07T08:09:16;19.60;99.90
2893;DHT22;1456;51.840;12.184;2023-08-07T08:11:41;19.70;99.90
2893;DHT22;1456;51.840;12.184;2023-08-07T08:14:08;19.50;99.90
2893;DHT22;1456;51.840;12.184;2023-08-07T08:16:35;19.30;99.90
2893;DHT22;1456;51.840;12.184;2023-08-07T08:19:00;19.00;99.90
2893;DHT22;1456;51.840;12.184;2023-08-07T08:21:27;18.70;99.90
2893;DHT22;1456;51.840;12.184;2023-08-07T08:23:53;18.70;99.90
2893;DHT22;1456;51.840;12.184;2023-08-07T08:26:19;18.50;99.90
2893;DHT22;1456;51.840;12.184;2023-08-07T08:28:46;18.30;99.90
2893;DHT22;1456;51.840;12.184;2023-08-07T08:31:13;18.30;99.90
2893;DHT22;1456;51.840;12.184;2023-08-07T08:33:39;18.20;99.90
2893;DHT22;1456;51.840;12.184;2023-08-07T08:36:06;18.40;99.90
2893;DHT22;1456;51.840;12.184;2023-08-07T08:38:33;18.40;99.90
2893;DHT22;1456;51.840;12.184;2023-08-07T08:41:02;18.50;99.90
2893;DHT22;1456;51.840;12.184;2023-08-07T08:43:34;18.60;99.90
2893;DHT22;1456;51.840;12.184;2023-08-07T08:46:01;18.70;99.90
2893;DHT22;1456;51.840;12.184;2023-08-07T08:48:27;18.90;99.90
2893;DHT22;1456;51.840;12.184;2023-08-07T08:50:57;18.90;99.90
2893;DHT22;1456;51.840;12.184;2023-08-07T08:53:24;19.10;99.90
2893;DHT22;1456;51.840;12.184;2023-08-07T08:55:52;19.60;99.90
2893;DHT22;1456;51.840;12.184;2023-08-07T08:58:19;19.60;99.90
2893;DHT22;1456;51.840;12.184;2023-08-07T09:00:46;19.40;99.90
2893;DHT22;1456;51.840;12.184;2023-08-07T09:03:13;19.50;99.90
2893;DHT22;1456;51.840;12.184;2023-08-07T09:05:39;19.60;99.90
2893;DHT22;1456;51.840;12.184;2023-08-07T09:08:06;19.60;99.90
2893;DHT22;1456;51.840;12.184;2023-08-07T09:10:32;19.80;99.90
2893;DHT22;1456;51.840;12.184;2023-08-07T09:13:03;19.90;99.90
2893;DHT22;1456;51.840;12.184;2023-08-07T09:15:31;19.80;99.90
2893;DHT22;1456;51.840;12.184;2023-08-07T09:17:58;20.00;99.90
2893;DHT22;1456;51.840;12.184;2023-08-07T09:20:25;20.30;99.90
2893;DHT22;1456;51.840;12.184;2023-08-07T09:22:52;20.20;99.90
2893;DHT22;1456;51.840;12.184;2023-08-07T09:25:29;20.30;99.90
2893;DHT22;1456;51.840;12.184;2023-08-07T09:27:55;20.40;99.90
2893;DHT22;1456;51.840;12.184;2023-08-07T09:30:27;20.50;99.90
2893;DHT22;1456;51.840;12.184;2023-08-07T09:32:57;20.90;99.90
2893;DHT22;1456;51.840;12.184;2023-08-07T09:35:23;21.10;99.90
2893;DHT22;1456;51.840;12.184;2023-08-07T09:37:51;21.30;99.90
2893;DHT22;1456;51.840;12.184;2023-08-07T09:40:18;21.10;99.90
2893;DHT22;1456;51.840;12.184;2023-08-07T09:42:54;21.20;99.90
2893;DHT22;1456;51.840;12.184;2023-08-07T09:47:46;21.90;99.90
2893;DHT22;1456;51.840;12.184;2023-08-07T09:50:16;22.10;99.90
2893;DHT22;1456;51.840;12.184;2023-08-07T09:52:47;22.00;99.90
2893;DHT22;1456;51.840;12.184;2023-08-07T09:55:14;22.10;99.90
2893;DHT22;1456;51.840;12.184;2023-08-07T09:57:45;21.80;99.90
2893;DHT22;1456;51.840;12.184;2023-08-07T10:00:17;21.80;99.90
2893;DHT22;1456;51.840;12.184;2023-08-07T10:02:46;22.10;99.90
2893;DHT22;1456;51.840;12.184;2023-08-07T10:05:15;22.30;99.90
2893;DHT22;1456;51.840;12.184;2023-08-07T10:07:41;22.40;99.90
2893;DHT22;1456;51.840;12.184;2023-08-07T10:10:08;22.70;99.90
2893;DHT22;1456;51.840;12.184;2023-08-07T10:12:36;23.10;99.90
2893;DHT22;1456;51.840;12.184;2023-08-07T10:15:03;23.20;99.90
2893;DHT22;1456;51.840;12.184;2023-08-07T10:17:32;23.30;99.90
2893;DHT22;1456;51.840;12.184;2023-08-07T10:19:59;23.20;99.40
2893;DHT22;1456;51.840;12.184;2023-08-07T10:22:26;22.70;99.90
2893;DHT22;1456;51.840;12.184;2023-08-07T10:24:57;22.50;99.90
2893;DHT22;1456;51.840;12.184;2023-08-07T10:27:23;22.60;99.90
2893;DHT22;1456;51.840;12.184;2023-08-07T10:29:52;22.80;99.90
2893;DHT22;1456;51.840;12.184;2023-08-07T10:32:25;22.80;99.00
2893;DHT22;1456;51.840;12.184;2023-08-07T10:34:53;23.60;98.90
2893;DHT22;1456;51.840;12.184;2023-08-07T10:37:39;23.60;98.10
2893;DHT22;1456;51.840;12.184;2023-08-07T10:40:08;23.80;97.00
2893;DHT22;1456;51.840;12.184;2023-08-07T10:42:58;24.00;98.50
2893;DHT22;1456;51.840;12.184;2023-08-07T10:45:27;24.30;96.90
2893;DHT22;1456;51.840;12.184;2023-08-07T10:48:10;23.90;96.80
2893;DHT22;1456;51.840;12.184;2023-08-07T10:50:58;23.50;96.60
2893;DHT22;1456;51.840;12.184;2023-08-07T10:53:34;23.60;98.80
2893;DHT22;1456;51.840;12.184;2023-08-07T10:56:04;24.40;98.20
2893;DHT22;1456;51.840;12.184;2023-08-07T10:58:35;25.00;96.80
2893;DHT22;1456;51.840;12.184;2023-08-07T11:01:20;25.00;96.60
2893;DHT22;1456;51.840;12.184;2023-08-07T11:03:57;24.30;95.70
2893;DHT22;1456;51.840;12.184;2023-08-07T11:06:29;24.00;96.10
2893;DHT22;1456;51.840;12.184;2023-08-07T11:08:57;24.30;95.10
2893;DHT22;1456;51.840;12.184;2023-08-07T11:11:27;24.90;94.80
2893;DHT22;1456;51.840;12.184;2023-08-07T11:13:52;25.10;94.10
2893;DHT22;1456;51.840;12.184;2023-08-07T11:16:19;24.90;93.90
2893;DHT22;1456;51.840;12.184;2023-08-07T11:18:49;23.60;94.40
2893;DHT22;1456;51.840;12.184;2023-08-07T11:21:15;21.90;98.50
2893;DHT22;1456;51.840;12.184;2023-08-07T11:23:41;20.10;99.90
2893;DHT22;1456;51.840;12.184;2023-08-07T11:26:13;18.90;99.90
2893;DHT22;1456;51.840;12.184;2023-08-07T11:28:40;18.10;99.90
2893;DHT22;1456;51.840;12.184;2023-08-07T11:31:06;17.40;99.90
2893;DHT22;1456;51.840;12.184;2023-08-07T11:33:32;16.90;99.90
2893;DHT22;1456;51.840;12.184;2023-08-07T11:35:57;16.60;99.90
2893;DHT22;1456;51.840;12.184;2023-08-07T11:38:38;16.50;99.90
2893;DHT22;1456;51.840;12.184;2023-08-07T11:41:06;16.20;99.90
2893;DHT22;1456;51.840;12.184;2023-08-07T11:43:34;16.10;99.90
2893;DHT22;1456;51.840;12.184;2023-08-07T11:46:12;16.00;99.90
2893;DHT22;1456;51.840;12.184;2023-08-07T11:48:41;16.20;99.90
2893;DHT22;1456;51.840;12.184;2023-08-07T11:51:07;16.50;99.90
2893;DHT22;1456;51.840;12.184;2023-08-07T11:53:37;16.70;99.90
2893;DHT22;1456;51.840;12.184;2023-08-07T11:56:09;16.90;99.90
2893;DHT22;1456;51.840;12.184;2023-08-07T11:58:40;17.20;99.90
2893;DHT22;1456;51.840;12.184;2023-08-07T12:01:18;17.40;99.90
2893;DHT22;1456;51.840;12.184;2023-08-07T12:06:32;18.00;99.90
2893;DHT22;1456;51.840;12.184;2023-08-07T12:08:59;18.60;99.90
2893;DHT22;1456;51.840;12.184;2023-08-07T12:11:29;19.40;99.90
2893;DHT22;1456;51.840;12.184;2023-08-07T12:14:00;20.20;99.90
2893;DHT22;1456;51.840;12.184;2023-08-07T12:16:37;21.00;99.90
2893;DHT22;1456;51.840;12.184;2023-08-07T12:19:04;21.00;99.90
2893;DHT22;1456;51.840;12.184;2023-08-07T12:21:30;20.80;99.90
2893;DHT22;1456;51.840;12.184;2023-08-07T12:23:59;20.90;99.90
2893;DHT22;1456;51.840;12.184;2023-08-07T12:26:28;20.60;99.90
2893;DHT22;1456;51.840;12.184;2023-08-07T12:28:56;20.40;99.90
2893;DHT22;1456;51.840;12.184;2023-08-07T12:31:21;20.50;99.90
2893;DHT22;1456;51.840;12.184;2023-08-07T12:33:48;20.50;99.90
2893;DHT22;1456;51.840;12.184;2023-08-07T12:36:21;21.20;99.90
2893;DHT22;1456;51.840;12.184;2023-08-07T12:38:48;22.20;99.90
2893;DHT22;1456;51.840;12.184;2023-08-07T12:41:14;23.00;99.90
2893;DHT22;1456;51.840;12.184;2023-08-07T12:43:40;23.80;99.90
2893;DHT22;1456;51.840;12.184;2023-08-07T12:46:06;24.90;99.90
2893;DHT22;1456;51.840;12.184;2023-08-07T12:48:32;25.50;99.00
2893;DHT22;1456;51.840;12.184;2023-08-07T12:50:58;25.80;98.20
2893;DHT22;1456;51.840;12.184;2023-08-07T12:53:23;25.80;96.60
2893;DHT22;1456;51.840;12.184;2023-08-07T12:55:52;24.70;96.70
2893;DHT22;1456;51.840;12.184;2023-08-07T12:58:23;23.60;97.80
2893;DHT22;1456;51.840;12.184;2023-08-07T13:00:53;23.20;97.30
2893;DHT22;1456;51.840;12.184;2023-08-07T13:03:18;22.70;97.80
2893;DHT22;1456;51.840;12.184;2023-08-07T13:05:45;22.30;99.90
2893;DHT22;1456;51.840;12.184;2023-08-07T13:08:11;21.50;98.60
2893;DHT22;1456;51.840;12.184;2023-08-07T13:10:36;20.60;99.90
2893;DHT22;1456;51.840;12.184;2023-08-07T13:13:05;19.50;99.90
2893;DHT22;1456;51.840;12.184;2023-08-07T13:15:33;18.40;99.90
2893;DHT22;1456;51.840;12.184;2023-08-07T13:17:59;17.70;99.90
2893;DHT22;1456;51.840;12.184;2023-08-07T13:20:28;17.60;99.90
2893;DHT22;1456;51.840;12.184;2023-08-07T13:23:01;18.10;99.90
2893;DHT22;1456;51.840;12.184;2023-08-07T13:25:27;19.10;99.90
2893;DHT22;1456;51.840;12.184;2023-08-07T13:27:53;20.90;99.90
2893;DHT22;1456;51.840;12.184;2023-08-07T13:30:19;21.90;99.90
2893;DHT22;1456;51.840;12.184;2023-08-07T13:32:45;21.80;99.90
2893;DHT22;1456;51.840;12.184;2023-08-07T13:35:12;20.80;99.90
2893;DHT22;1456;51.840;12.184;2023-08-07T13:37:41;20.10;99.90
2893;DHT22;1456;51.840;12.184;2023-08-07T13:40:07;19.60;99.90
2893;DHT22;1456;51.840;12.184;2023-08-07T13:42:33;19.30;99.90
2893;DHT22;1456;51.840;12.184;2023-08-07T13:45:02;19.10;99.90
2893;DHT22;1456;51.840;12.184;2023-08-07T13:47:28;18.90;99.90
2893;DHT22;1456;51.840;12.184;2023-08-07T13:49:54;19.40;99.90
2893;DHT22;1456;51.840;12.184;2023-08-07T13:52:20;20.60;99.90
2893;DHT22;1456;51.840;12.184;2023-08-07T13:54:45;22.10;99.90
2893;DHT22;1456;51.840;12.184;2023-08-07T13:57:11;23.60;99.90
2893;DHT22;1456;51.840;12.184;2023-08-07T13:59:37;24.80;99.90
2893;DHT22;1456;51.840;12.184;2023-08-07T14:02:02;24.80;98.80
2893;DHT22;1456;51.840;12.184;2023-08-07T14:04:29;24.50;98.80
2893;DHT22;1456;51.840;12.184;2023-08-07T14:06:55;24.40;98.30
2893;DHT22;1456;51.840;12.184;2023-08-07T14:09:28;24.10;99.10
2893;DHT22;1456;51.840;12.184;2023-08-07T14:11:58;24.40;97.50
2893;DHT22;1456;51.840;12.184;2023-08-07T14:14:24;24.80;95.30
2893;DHT22;1456;51.840;12.184;2023-08-07T14:16:53;23.90;93.80
2893;DHT22;1456;51.840;12.184;2023-08-07T14:19:22;22.50;95.10
2893;DHT22;1456;51.840;12.184;2023-08-07T14:21:47;21.30;96.20
2893;DHT22;1456;51.840;12.184;2023-08-07T14:24:14;20.20;97.30
2893;DHT22;1456;51.840;12.184;2023-08-07T14:26:41;19.80;98.40
2893;DHT22;1456;51.840;12.184;2023-08-07T14:29:07;19.50;99.90
2893;DHT22;1456;51.840;12.184;2023-08-07T14:31:33;19.70;99.90
2893;DHT22;1456;51.840;12.184;2023-08-07T14:33:58;20.20;99.90
2893;DHT22;1456;51.840;12.184;2023-08-07T14:36:24;20.90;99.40
2893;DHT22;1456;51.840;12.184;2023-08-07T14:38:50;21.40;98.80
2893;DHT22;1456;51.840;12.184;2023-08-07T14:41:17;21.10;98.50
2893;DHT22;1456;51.840;12.184;2023-08-07T14:43:45;21.00;99.30
2893;DHT22;1456;51.840;12.184;2023-08-07T14:46:12;21.30;98.70
2893;DHT22;1456;51.840;12.184;2023-08-07T14:48:37;21.70;98.10
2893;DHT22;1456;51.840;12.184;2023-08-07T14:51:03;22.80;97.30
2893;DHT22;1456;51.840;12.184;2023-08-07T14:53:29;24.20;94.10
2893;DHT22;1456;51.840;12.184;2023-08-07T14:55:55;24.70;92.40
2893;DHT22;1456;51.840;12.184;2023-08-07T14:58:22;23.80;92.20
2893;DHT22;1456;51.840;12.184;2023-08-07T15:00:47;22.90;93.70
2893;DHT22;1456;51.840;12.184;2023-08-07T15:03:16;21.70;94.60
2893;DHT22;1456;51.840;12.184;2023-08-07T15:05:42;20.60;96.30
2893;DHT22;1456;51.840;12.184;2023-08-07T15:08:07;19.80;97.00
2893;DHT22;1456;51.840;12.184;2023-08-07T15:10:34;19.60;98.00
2893;DHT22;1456;51.840;12.184;2023-08-07T15:13:00;19.40;98.80
2893;DHT22;1456;51.840;12.184;2023-08-07T15:15:26;19.50;97.80
2893;DHT22;1456;51.840;12.184;2023-08-07T15:17:52;19.70;96.90
2893;DHT22;1456;51.840;12.184;2023-08-07T15:20:18;20.20;96.90
2893;DHT22;1456;51.840;12.184;2023-08-07T15:22:46;20.80;95.30
2893;DHT22;1456;51.840;12.184;2023-08-07T15:25:13;21.40;95.50
2893;DHT22;1456;51.840;12.184;2023-08-07T15:27:38;23.20;92.70
2893;DHT22;1456;51.840;12.184;2023-08-07T15:30:06;25.00;89.30
2893;DHT22;1456;51.840;12.184;2023-08-07T15:32:32;26.40;83.50
2893;DHT22;1456;51.840;12.184;2023-08-07T15:34:58;26.60;85.50
2893;DHT22;1456;51.840;12.184;2023-08-07T15:37:25;25.70;83.50
2893;DHT22;1456;51.840;12.184;2023-08-07T15:39:52;24.50;87.90
2893;DHT22;1456;51.840;12.184;2023-08-07T15:42:19;22.80;87.10
2893;DHT22;1456;51.840;12.184;2023-08-07T15:44:46;21.30;91.50
2893;DHT22;1456;51.840;12.184;2023-08-07T15:47:13;20.20;93.20
2893;DHT22;1456;51.840;12.184;2023-08-07T15:49:38;19.50;95.20
2893;DHT22;1456;51.840;12.184;2023-08-07T15:52:04;18.90;96.80
2893;DHT22;1456;51.840;12.184;2023-08-07T15:54:30;18.70;97.80
2893;DHT22;1456;51.840;12.184;2023-08-07T15:56:55;18.40;98.10
2893;DHT22;1456;51.840;12.184;2023-08-07T15:59:24;18.30;98.60